KYIP/YIP METAR and TAF weather

Enter ICAO airport designator
Station Type Date Time Source
KYIP METAR 2022/01/29 00:53 UTC NOAA

KYIP 290053Z 03006KT 10SM BKN031 M09/M16 A3027 RMK AO2 SLP264 T10941161


Station Type Date Time Source
KYIP Decoded METAR 2022/01/29 00:53 UTC NOAA

WILLOW RUN AIRPORT, MI, United States (KYIP) 42-14N 083-32W 215M
Jan 28, 2022 - 07:53 PM EST / 2022.01.29 0053 UTC
Wind: from the NNE (030 degrees) at 7 MPH (6 KT):0
Visibility: 10 mile(s):0
Sky conditions: mostly cloudy
Temperature: 15.1 F (-9.4 C)
Windchill: 5 F (-15 C):1
Dew Point: 3.0 F (-16.1 C)
Relative Humidity: 58%
Pressure (altimeter): 30.27 in. Hg (1025 hPa)
ob: KYIP 290053Z 03006KT 10SM BKN031 M09/M16 A3027 RMK AO2 SLP264 T10941161
cycle: 1

Station Type Date Time Source
KYIP TAF 2022/01/28 20:10 UTC NOAA

TAF
AMD KYIP 282008Z 2820/2918 02009KT P6SM SCT030 BKN045
TEMPO 2821/2823 5SM -SHSN BKN030 OVC040
FM290300 35004KT P6SM FEW025 SCT250
FM291600 23006KT P6SM SCT035

Example: see airport list